Time;durP1;ratioP1;P1;durP2;ratioP2;P2;SDS_P1;SDS_P2;PMS_P1;PMS_P2;Temp;Humidity;BMP_temperature;BMP_pressure;BME280_temperature;BME280_humidity;BME280_pressure;Samples;Min_cycle;Max_cycle;Signal;HPM_P1;HPM_P2
2021/11/29 00:01:31;;;;;;;5.82;1.52;;;3.20;12.20;;;;;;5037196;28;20171;-74
2021/11/29 00:03:57;;;;;;;3.88;1.27;;;3.10;8.80;;;;;;5037263;28;20038;-74
2021/11/29 00:06:23;;;;;;;11.07;1.73;;;3.10;15.50;;;;;;5037453;28;20473;-74
2021/11/29 00:08:50;;;;;;;4.75;1.33;;;3.10;7.70;;;;;;5037357;28;20091;-74
2021/11/29 00:11:15;;;;;;;5.25;1.50;;;3.10;7.50;;;;;;5037276;28;20572;-74
2021/11/29 00:13:42;;;;;;;4.65;1.65;;;3.10;13.40;;;;;;5037264;28;20069;-74
2021/11/29 00:16:08;;;;;;;7.53;1.77;;;3.10;8.10;;;;;;5037167;28;20037;-74
2021/11/29 00:18:35;;;;;;;6.60;2.78;;;3.20;9.90;;;;;;5036832;28;20053;-74
2021/11/29 00:21:01;;;;;;;5.47;2.13;;;3.10;7.80;;;;;;5037057;28;20041;-74
2021/11/29 00:23:27;;;;;;;5.82;1.70;;;3.10;11.90;;;;;;5036969;28;20088;-74
2021/11/29 00:25:53;;;;;;;8.30;1.60;;;3.20;3.20;;;;;;5036821;28;20496;-74
2021/11/29 00:28:20;;;;;;;5.00;1.63;;;3.20;6.10;;;;;;5036134;28;20044;-74
2021/11/29 00:30:46;;;;;;;5.50;1.30;;;3.20;1.00;;;;;;5036664;28;20575;-74
2021/11/29 00:33:13;;;;;;;5.40;1.45;;;3.10;1.00;;;;;;5036543;28;20171;-74
2021/11/29 00:35:40;;;;;;;6.57;1.50;;;3.10;5.40;;;;;;5036332;28;20492;-74
2021/11/29 00:38:06;;;;;;;9.27;2.28;;;3.10;1.00;;;;;;5036253;28;20111;-74
2021/11/29 00:40:33;;;;;;;7.95;1.60;;;3.10;5.30;;;;;;5036476;28;20079;-74
2021/11/29 00:42:59;;;;;;;6.45;1.30;;;3.10;6.30;;;;;;5036162;28;20068;-73
2021/11/29 00:45:25;;;;;;;5.43;1.50;;;3.10;10.90;;;;;;5036020;28;20056;-73
2021/11/29 00:47:51;;;;;;;4.70;1.90;;;3.10;13.80;;;;;;5036201;28;20045;-74
2021/11/29 00:50:19;;;;;;;5.68;1.85;;;3.10;19.20;;;;;;5036325;28;20042;-74
2021/11/29 00:52:45;;;;;;;4.30;1.55;;;3.00;1.00;;;;;;5035995;28;20423;-74
2021/11/29 00:55:12;;;;;;;8.10;1.80;;;3.10;1.90;;;;;;5036223;28;20037;-74
2021/11/29 00:57:39;;;;;;;6.85;1.70;;;3.10;8.70;;;;;;5036188;28;20052;-74
2021/11/29 01:00:08;;;;;;;5.40;1.40;;;3.10;10.40;;;;;;5036225;28;20083;-74
2021/11/29 01:02:34;;;;;;;4.03;1.58;;;3.10;6.40;;;;;;5035882;28;20048;-73
2021/11/29 01:05:00;;;;;;;7.07;1.40;;;3.10;4.90;;;;;;5035681;28;20124;-74
2021/11/29 01:07:26;;;;;;;4.15;1.30;;;3.00;1.00;;;;;;5035737;28;20037;-73
2021/11/29 01:09:51;;;;;;;4.95;1.60;;;3.00;8.30;;;;;;5035935;28;20036;-74
2021/11/29 01:12:17;;;;;;;5.63;1.80;;;3.00;3.90;;;;;;5035895;28;20048;-74
2021/11/29 01:14:43;;;;;;;9.48;2.13;;;3.00;1.00;;;;;;5035491;28;20519;-74
2021/11/29 01:17:10;;;;;;;3.13;1.50;;;3.00;6.20;;;;;;5035327;28;20037;-74
2021/11/29 01:19:36;;;;;;;5.10;1.88;;;3.00;17.70;;;;;;5035812;28;20045;-74
2021/11/29 01:22:03;;;;;;;6.00;1.30;;;3.00;20.90;;;;;;5035502;28;20048;-74
2021/11/29 01:24:29;;;;;;;5.07;1.50;;;3.00;17.70;;;;;;5035879;28;20473;-74
2021/11/29 01:26:55;;;;;;;6.15;1.45;;;2.90;24.10;;;;;;5035553;28;20128;-74
2021/11/29 01:29:21;;;;;;;5.65;1.52;;;2.90;20.70;;;;;;5035623;28;20068;-74
2021/11/29 01:31:47;;;;;;;6.05;1.92;;;2.90;17.80;;;;;;5035680;28;20069;-74
2021/11/29 01:34:13;;;;;;;7.25;1.95;;;2.90;22.80;;;;;;5035623;28;20072;-73
2021/11/29 01:36:40;;;;;;;6.57;1.70;;;2.90;25.40;;;;;;5035457;28;20029;-74
2021/11/29 01:39:07;;;;;;;3.72;1.35;;;2.90;20.30;;;;;;5035373;28;20045;-74
2021/11/29 01:41:32;;;;;;;4.25;1.45;;;2.90;5.60;;;;;;5035255;28;20492;-74
2021/11/29 01:43:58;;;;;;;5.32;1.70;;;2.90;19.50;;;;;;5035676;28;20068;-74
2021/11/29 01:46:24;;;;;;;7.22;1.48;;;2.90;5.00;;;;;;5035503;28;20511;-74
2021/11/29 01:48:51;;;;;;;5.88;1.27;;;2.90;7.90;;;;;;5035349;28;20071;-74
2021/11/29 01:51:17;;;;;;;4.07;1.20;;;2.80;14.60;;;;;;5036015;28;20029;-74
2021/11/29 01:53:44;;;;;;;3.95;1.67;;;2.80;10.90;;;;;;5035120;28;20041;-73
2021/11/29 01:56:10;;;;;;;7.75;1.85;;;2.90;24.20;;;;;;5034920;28;20094;-74
2021/11/29 01:58:39;;;;;;;7.53;2.05;;;2.80;5.70;;;;;;5035274;28;20073;-74
2021/11/29 02:01:14;;;;;;;3.75;1.38;;;2.80;14.50;;;;;;5035302;28;20033;-74
2021/11/29 02:03:42;;;;;;;7.50;1.92;;;2.90;15.70;;;;;;5034477;28;20127;-74
2021/11/29 02:06:09;;;;;;;4.50;1.63;;;2.80;13.30;;;;;;5035202;28;20045;-74
2021/11/29 02:08:36;;;;;;;4.47;1.20;;;2.80;15.10;;;;;;5034947;28;20037;-74
2021/11/29 02:11:02;;;;;;;4.80;1.55;;;2.80;7.80;;;;;;5034782;28;20034;-74
2021/11/29 02:13:27;;;;;;;7.45;1.67;;;2.80;4.90;;;;;;5035007;28;20048;-74
2021/11/29 02:15:53;;;;;;;4.50;1.27;;;2.70;9.20;;;;;;5034776;28;20095;-74
2021/11/29 02:18:25;;;;;;;7.43;1.55;;;2.80;14.00;;;;;;5035093;28;20370;-74
2021/11/29 02:21:11;;;;;;;5.00;1.23;;;2.80;4.50;;;;;;5035185;28;20542;-74
2021/11/29 02:23:42;;;;;;;2.35;1.23;;;2.80;8.00;;;;;;5034616;28;20061;-73
2021/11/29 02:26:09;;;;;;;8.02;1.30;;;2.80;1.00;;;;;;5034737;28;20504;-74
2021/11/29 02:28:38;;;;;;;7.15;1.50;;;2.80;1.00;;;;;;5034497;28;20457;-73
2021/11/29 02:31:12;;;;;;;6.68;1.77;;;2.70;1.00;;;;;;5034600;28;20044;-74
2021/11/29 02:33:38;;;;;;;4.00;1.33;;;2.70;5.50;;;;;;5034469;28;20029;-74
2021/11/29 02:36:04;;;;;;;3.95;1.40;;;2.70;2.70;;;;;;5034569;28;20133;-74
2021/11/29 02:38:31;;;;;;;4.03;1.10;;;2.70;13.40;;;;;;5034773;28;20069;-74
2021/11/29 02:40:58;;;;;;;3.22;1.25;;;2.70;5.50;;;;;;5034420;28;20135;-73
2021/11/29 02:43:24;;;;;;;5.20;1.60;;;2.70;1.00;;;;;;5034695;28;20484;-74
2021/11/29 02:45:50;;;;;;;5.50;1.20;;;2.70;1.00;;;;;;5034397;28;20048;-73
2021/11/29 02:48:15;;;;;;;5.00;1.13;;;2.70;1.00;;;;;;5034185;28;20045;-74
2021/11/29 02:50:41;;;;;;;5.03;1.40;;;2.70;1.00;;;;;;5034308;28;20037;-73
2021/11/29 02:53:10;;;;;;;4.70;1.63;;;2.70;1.00;;;;;;5034500;28;20047;-73
2021/11/29 02:55:38;;;;;;;4.60;1.33;;;2.70;1.00;;;;;;5034056;28;20034;-74
2021/11/29 02:58:05;;;;;;;4.20;1.33;;;2.70;1.00;;;;;;5034236;28;20063;-74
2021/11/29 03:00:32;;;;;;;4.07;1.40;;;2.70;1.00;;;;;;5034516;28;20092;-74
2021/11/29 03:03:04;;;;;;;6.32;1.27;;;2.70;1.00;;;;;;5033799;28;20045;-74
2021/11/29 03:05:30;;;;;;;5.05;1.63;;;2.70;1.00;;;;;;5034217;28;20389;-74
2021/11/29 03:07:55;;;;;;;4.85;1.40;;;2.70;3.30;;;;;;5035005;28;20044;-73
2021/11/29 03:10:21;;;;;;;5.97;1.38;;;2.60;3.80;;;;;;5038270;28;20033;-73
2021/11/29 03:12:47;;;;;;;8.98;1.85;;;2.60;3.80;;;;;;5038123;28;20052;-74
2021/11/29 03:15:13;;;;;;;6.88;1.80;;;2.60;8.40;;;;;;5038108;28;20515;-74
2021/11/29 03:17:39;;;;;;;4.72;1.42;;;2.50;5.50;;;;;;5038307;28;20039;-74
2021/11/29 03:20:10;;;;;;;6.38;1.95;;;2.50;1.00;;;;;;5037774;28;20482;-74
2021/11/29 03:22:36;;;;;;;5.00;1.50;;;2.50;1.00;;;;;;5037707;28;20400;-74
2021/11/29 03:25:03;;;;;;;4.18;1.60;;;2.50;2.20;;;;;;5037751;28;20117;-74
2021/11/29 03:27:29;;;;;;;6.20;1.52;;;2.50;1.00;;;;;;5037547;28;20041;-74
2021/11/29 03:29:55;;;;;;;8.05;2.05;;;2.50;3.30;;;;;;5037825;28;20045;-74
2021/11/29 03:32:22;;;;;;;4.95;1.33;;;2.50;5.20;;;;;;5037638;28;20041;-74
2021/11/29 03:34:48;;;;;;;6.50;1.83;;;2.50;8.90;;;;;;5037689;28;20029;-74
2021/11/29 03:37:16;;;;;;;3.88;1.60;;;2.50;13.70;;;;;;5037857;28;20061;-74
2021/11/29 03:39:41;;;;;;;5.95;1.50;;;2.50;2.50;;;;;;5037706;28;20042;-73
2021/11/29 03:42:07;;;;;;;4.55;1.63;;;2.50;7.10;;;;;;5037233;28;20366;-74
2021/11/29 03:44:35;;;;;;;6.95;1.88;;;2.50;11.10;;;;;;5037654;28;20044;-74
2021/11/29 03:47:04;;;;;;;5.32;1.80;;;2.50;6.30;;;;;;5037348;28;20504;-74
2021/11/29 03:49:30;;;;;;;7.10;1.80;;;2.50;7.80;;;;;;5037508;28;20048;-74
2021/11/29 03:51:56;;;;;;;3.92;1.52;;;2.40;11.50;;;;;;5038552;28;20453;-74
2021/11/29 03:54:22;;;;;;;4.47;1.80;;;2.50;19.60;;;;;;5037427;28;20041;-74
2021/11/29 03:56:49;;;;;;;5.90;1.65;;;2.50;1.00;;;;;;5037871;28;20037;-74
2021/11/29 03:59:16;;;;;;;6.78;2.17;;;2.40;10.40;;;;;;5037540;28;20052;-74
2021/11/29 04:01:42;;;;;;;6.32;1.63;;;2.50;6.00;;;;;;5036831;28;20037;-73
2021/11/29 04:04:09;;;;;;;2.55;1.55;;;2.40;9.30;;;;;;5036906;28;20510;-73
2021/11/29 04:06:35;;;;;;;3.88;1.67;;;2.50;7.50;;;;;;5036835;28;20037;-74
2021/11/29 04:09:03;;;;;;;7.30;1.75;;;2.50;10.30;;;;;;5037337;28;20076;-74
2021/11/29 04:11:29;;;;;;;3.22;1.52;;;2.50;3.50;;;;;;5036970;28;20076;-74
2021/11/29 04:13:54;;;;;;;3.55;1.95;;;2.40;5.20;;;;;;5037046;28;20044;-74
2021/11/29 04:16:20;;;;;;;5.32;1.60;;;2.40;9.50;;;;;;5037226;28;20041;-74
2021/11/29 04:18:46;;;;;;;4.93;1.65;;;2.40;1.00;;;;;;5036902;28;20041;-73
2021/11/29 04:21:14;;;;;;;5.32;1.50;;;2.40;1.00;;;;;;5035749;28;20045;-74
2021/11/29 04:23:44;;;;;;;5.03;1.77;;;2.40;1.00;;;;;;5036557;28;20091;-74
2021/11/29 04:26:12;;;;;;;5.75;1.88;;;2.40;3.40;;;;;;5037074;28;20198;-74
2021/11/29 04:28:38;;;;;;;7.25;1.95;;;2.40;4.30;;;;;;5037092;28;20045;-74
2021/11/29 04:31:04;;;;;;;5.75;1.65;;;2.40;2.70;;;;;;5036897;28;20392;-73
2021/11/29 04:33:30;;;;;;;5.45;1.85;;;2.40;4.10;;;;;;5036548;28;20127;-74
2021/11/29 04:35:56;;;;;;;8.35;2.05;;;2.30;1.00;;;;;;5037211;28;20030;-73
2021/11/29 04:38:22;;;;;;;6.55;1.63;;;2.30;2.90;;;;;;5036389;28;20079;-74
2021/11/29 04:40:48;;;;;;;5.53;1.50;;;2.30;2.20;;;;;;5036593;28;20182;-73
2021/11/29 04:43:14;;;;;;;4.00;1.42;;;2.30;1.00;;;;;;5036750;28;20063;-73
2021/11/29 04:45:40;;;;;;;4.00;1.52;;;2.30;3.00;;;;;;5036731;28;20049;-73
2021/11/29 04:48:06;;;;;;;3.55;1.52;;;2.30;6.10;;;;;;5036463;28;20044;-74
2021/11/29 04:50:32;;;;;;;5.95;1.67;;;2.30;3.80;;;;;;5036828;28;20030;-74
2021/11/29 04:52:58;;;;;;;3.88;2.10;;;2.30;1.00;;;;;;5036579;28;20072;-74
2021/11/29 04:55:24;;;;;;;7.03;1.90;;;2.30;1.00;;;;;;5036259;28;20179;-74
2021/11/29 04:57:50;;;;;;;5.35;1.35;;;2.30;4.90;;;;;;5036801;28;20132;-74
2021/11/29 05:00:18;;;;;;;4.85;1.85;;;2.30;1.00;;;;;;5037059;28;20128;-74
2021/11/29 05:02:45;;;;;;;7.15;1.35;;;2.20;5.30;;;;;;5036162;28;20040;-74
2021/11/29 05:05:11;;;;;;;4.80;1.55;;;2.30;14.70;;;;;;5035003;28;20037;-74
2021/11/29 05:07:38;;;;;;;3.58;1.75;;;2.20;11.50;;;;;;5035377;28;20120;-73
2021/11/29 05:10:06;;;;;;;8.15;1.70;;;2.20;10.10;;;;;;5036224;28;20033;-73
2021/11/29 05:12:32;;;;;;;4.22;1.60;;;2.20;11.80;;;;;;5035350;28;20094;-73
2021/11/29 05:14:58;;;;;;;3.97;1.60;;;2.20;16.70;;;;;;5035118;28;20154;-73
2021/11/29 05:17:24;;;;;;;6.22;1.58;;;2.20;2.10;;;;;;5034992;28;20065;-73
2021/11/29 05:19:50;;;;;;;3.67;1.70;;;2.20;9.20;;;;;;5033726;28;20072;-74
2021/11/29 05:22:16;;;;;;;3.30;1.50;;;2.20;6.40;;;;;;5020992;28;20037;-73
2021/11/29 05:24:42;;;;;;;2.75;1.33;;;2.20;7.40;;;;;;5015400;28;20067;-73
2021/11/29 05:27:08;;;;;;;5.60;1.48;;;2.30;15.60;;;;;;5028009;28;20049;-73
2021/11/29 05:29:34;;;;;;;5.15;1.42;;;2.30;12.00;;;;;;5035481;28;20041;-75
2021/11/29 05:32:00;;;;;;;4.45;1.40;;;2.30;15.00;;;;;;5033843;28;20045;-74
2021/11/29 05:34:26;;;;;;;3.60;1.58;;;2.30;14.70;;;;;;5034656;28;20065;-74
2021/11/29 05:36:52;;;;;;;3.72;1.40;;;2.30;14.10;;;;;;5033594;28;20094;-74
2021/11/29 05:39:18;;;;;;;4.00;1.65;;;2.20;7.50;;;;;;5034899;28;20095;-72
2021/11/29 05:41:45;;;;;;;2.65;1.30;;;2.20;10.90;;;;;;5034358;28;20025;-72
2021/11/29 05:44:13;;;;;;;5.85;1.58;;;2.20;13.30;;;;;;5035400;28;20072;-72
2021/11/29 05:46:39;;;;;;;3.55;1.50;;;2.30;8.30;;;;;;5034820;28;20041;-72
2021/11/29 05:49:05;;;;;;;8.77;2.47;;;2.20;6.70;;;;;;5034322;28;20041;-72
2021/11/29 05:51:31;;;;;;;7.80;1.90;;;2.20;16.90;;;;;;5034375;28;20041;-71
2021/11/29 05:53:57;;;;;;;5.90;2.05;;;2.20;9.40;;;;;;5035062;28;20044;-72
2021/11/29 05:56:23;;;;;;;4.68;1.77;;;2.20;10.10;;;;;;5035063;28;20048;-72
2021/11/29 05:58:50;;;;;;;3.63;1.63;;;2.20;17.10;;;;;;5034999;28;20037;-73
2021/11/29 06:01:16;;;;;;;2.28;1.23;;;2.20;19.90;;;;;;5034827;28;20092;-73
2021/11/29 06:03:44;;;;;;;5.35;1.33;;;2.30;13.60;;;;;;5034386;28;20041;-73
2021/11/29 06:06:10;;;;;;;5.22;1.50;;;2.30;18.70;;;;;;5035504;28;20468;-73
2021/11/29 06:08:35;;;;;;;5.78;1.70;;;2.30;16.50;;;;;;5034327;28;20389;-73
2021/11/29 06:11:01;;;;;;;3.65;1.15;;;2.30;14.70;;;;;;5034612;28;20067;-73
2021/11/29 06:13:27;;;;;;;3.72;1.52;;;2.30;19.80;;;;;;5034789;28;20034;-72
2021/11/29 06:15:53;;;;;;;4.13;1.88;;;2.20;11.90;;;;;;5035380;28;20392;-73
2021/11/29 06:18:19;;;;;;;7.85;2.05;;;2.20;20.50;;;;;;5034582;28;20492;-72
2021/11/29 06:20:45;;;;;;;4.57;1.55;;;2.20;20.80;;;;;;5034728;28;20120;-72
2021/11/29 06:23:11;;;;;;;7.60;1.60;;;2.20;24.60;;;;;;5034411;28;20021;-71
2021/11/29 06:25:38;;;;;;;7.78;1.70;;;2.20;23.40;;;;;;5034633;28;20076;-71
2021/11/29 06:28:06;;;;;;;4.20;1.60;;;2.20;19.80;;;;;;5034292;28;20036;-72
2021/11/29 06:30:33;;;;;;;4.88;1.85;;;2.20;23.00;;;;;;5034475;28;20047;-72
2021/11/29 06:32:59;;;;;;;4.32;1.40;;;2.20;17.90;;;;;;5034427;28;20044;-71
2021/11/29 06:35:25;;;;;;;4.30;1.55;;;2.20;11.70;;;;;;5034205;28;20510;-71
2021/11/29 06:37:57;;;;;;;5.63;1.50;;;2.20;15.20;;;;;;5034532;28;20037;-71
2021/11/29 06:40:23;;;;;;;4.03;1.35;;;2.20;24.90;;;;;;5034519;28;20072;-72
2021/11/29 06:42:49;;;;;;;3.30;1.67;;;2.30;27.20;;;;;;5034059;28;20112;-71
2021/11/29 06:45:15;;;;;;;5.88;2.03;;;2.20;27.80;;;;;;5034716;28;20132;-72
2021/11/29 06:47:42;;;;;;;4.40;1.88;;;2.20;14.90;;;;;;5034297;28;20033;-72
2021/11/29 06:50:10;;;;;;;6.57;1.77;;;2.20;26.50;;;;;;5034172;28;20053;-73
2021/11/29 06:52:36;;;;;;;4.40;1.88;;;2.20;13.90;;;;;;5034659;28;20038;-72
2021/11/29 06:55:04;;;;;;;3.75;1.60;;;2.20;15.10;;;;;;5034094;28;20068;-72
2021/11/29 06:57:29;;;;;;;7.72;2.10;;;2.10;6.50;;;;;;5034634;28;20041;-72
2021/11/29 06:59:55;;;;;;;7.25;2.55;;;2.10;12.10;;;;;;5034396;28;20045;-72
2021/11/29 07:02:26;;;;;;;5.80;1.85;;;2.20;17.60;;;;;;5034084;28;20500;-73
2021/11/29 07:04:53;;;;;;;6.18;1.88;;;2.20;5.50;;;;;;5033491;28;20508;-72
2021/11/29 07:07:19;;;;;;;6.80;2.45;;;2.20;1.00;;;;;;5034518;28;20068;-72
2021/11/29 07:09:45;;;;;;;8.10;3.35;;;2.20;8.10;;;;;;5033822;28;20374;-72
2021/11/29 07:12:14;;;;;;;5.68;2.38;;;2.20;8.80;;;;;;5034163;28;20044;-72
2021/11/29 07:14:40;;;;;;;5.75;3.30;;;2.10;3.50;;;;;;5033574;28;20044;-72
2021/11/29 07:17:06;;;;;;;7.47;2.80;;;2.10;11.90;;;;;;5033804;28;20041;-73
2021/11/29 07:19:32;;;;;;;3.22;1.70;;;2.10;13.60;;;;;;5034025;28;20119;-74
2021/11/29 07:21:58;;;;;;;6.20;2.00;;;2.10;1.00;;;;;;5032817;28;20041;-76
2021/11/29 07:24:24;;;;;;;6.90;3.17;;;1.80;14.20;;;;;;5026882;28;20103;-74
2021/11/29 07:26:50;;;;;;;5.68;2.47;;;1.60;11.40;;;;;;5031067;28;20034;-74
2021/11/29 07:29:16;;;;;;;5.07;2.40;;;1.50;12.50;;;;;;5031903;28;20051;-74
2021/11/29 07:31:43;;;;;;;7.15;2.00;;;1.40;6.70;;;;;;5026335;28;20408;-74
2021/11/29 07:34:09;;;;;;;7.53;3.10;;;1.40;9.60;;;;;;5032463;28;20523;-74
2021/11/29 07:36:36;;;;;;;5.05;2.22;;;1.40;25.50;;;;;;5032775;28;20037;-74
2021/11/29 07:39:03;;;;;;;12.30;5.13;;;1.40;17.50;;;;;;5032874;28;20508;-74
2021/11/29 07:41:29;;;;;;;3.03;1.60;;;1.50;12.50;;;;;;5032371;28;20033;-74
2021/11/29 07:43:55;;;;;;;14.75;7.38;;;1.50;1.00;;;;;;5032293;28;20052;-74
2021/11/29 07:46:21;;;;;;;5.00;2.47;;;1.50;10.40;;;;;;5045317;28;20563;-74
2021/11/29 07:48:47;;;;;;;11.43;4.82;;;1.50;1.00;;;;;;5035991;28;20052;-74
2021/11/29 07:51:12;;;;;;;6.45;2.38;;;1.60;3.00;;;;;;5032651;28;20180;-74
2021/11/29 07:53:38;;;;;;;245.80;107.82;;;1.60;10.80;;;;;;5027103;28;20042;-73
2021/11/29 07:56:05;;;;;;;141.02;58.10;;;1.70;3.60;;;;;;5034216;28;20163;-72
2021/11/29 07:58:31;;;;;;;376.42;154.88;;;1.80;1.00;;;;;;5035692;28;20037;-74
2021/11/29 08:00:57;;;;;;;11.63;5.95;;;1.80;1.00;;;;;;5035492;28;20044;-72
2021/11/29 08:03:23;;;;;;;8.60;4.40;;;1.80;1.00;;;;;;5036357;28;20044;-72
2021/11/29 08:05:48;;;;;;;4.07;2.65;;;1.80;1.00;;;;;;5036518;28;20041;-72
2021/11/29 08:08:14;;;;;;;6.97;1.75;;;1.80;4.30;;;;;;5036880;28;20041;-71
2021/11/29 08:10:41;;;;;;;5.35;1.77;;;1.80;1.00;;;;;;5037137;28;20400;-74
2021/11/29 08:13:09;;;;;;;6.72;1.75;;;1.80;1.00;;;;;;5036460;28;20072;-73
2021/11/29 08:15:37;;;;;;;6.28;2.80;;;1.80;1.00;;;;;;5034119;28;20504;-74
2021/11/29 08:18:04;;;;;;;5.60;2.88;;;1.80;1.00;;;;;;5036124;28;20046;-74
2021/11/29 08:20:30;;;;;;;7.70;4.38;;;1.80;1.00;;;;;;5035988;28;20111;-73
2021/11/29 08:22:56;;;;;;;21.40;10.15;;;1.90;1.00;;;;;;5036705;28;20488;-74
2021/11/29 08:25:22;;;;;;;4.30;2.55;;;1.90;1.20;;;;;;5036899;28;20060;-73
2021/11/29 08:27:48;;;;;;;14.15;10.70;;;1.90;1.00;;;;;;5037004;28;20103;-74
2021/11/29 08:30:18;;;;;;;11.50;8.80;;;1.90;1.00;;;;;;5036390;28;20046;-74
2021/11/29 08:32:44;;;;;;;4.47;1.88;;;1.90;1.00;;;;;;5037155;28;20041;-74
2021/11/29 08:35:13;;;;;;;5.07;1.83;;;1.90;1.00;;;;;;5036887;28;20412;-73
2021/11/29 08:37:45;;;;;;;4.93;1.48;;;2.00;7.30;;;;;;5036504;28;20033;-74
2021/11/29 08:40:12;;;;;;;8.43;4.60;;;2.00;1.00;;;;;;5036882;28;20045;-73
2021/11/29 08:42:38;;;;;;;3.10;1.35;;;2.00;1.00;;;;;;5037007;28;20064;-74
2021/11/29 08:45:04;;;;;;;4.60;1.50;;;2.00;1.00;;;;;;5036760;28;20041;-74
2021/11/29 08:47:30;;;;;;;3.95;1.95;;;2.10;1.00;;;;;;5036038;28;20048;-74
2021/11/29 08:49:56;;;;;;;5.22;1.52;;;2.20;1.00;;;;;;5036693;28;20046;-74
2021/11/29 08:52:24;;;;;;;3.42;1.58;;;2.10;1.00;;;;;;5036653;28;20575;-74
2021/11/29 08:54:50;;;;;;;15.88;7.43;;;2.10;2.90;;;;;;5036671;28;20040;-74
2021/11/29 08:57:16;;;;;;;5.05;2.00;;;2.20;1.00;;;;;;5036537;28;20037;-73
2021/11/29 08:59:42;;;;;;;7.45;2.05;;;2.20;1.00;;;;;;5036647;28;20392;-73
2021/11/29 09:02:07;;;;;;;6.63;3.53;;;2.20;1.00;;;;;;5036264;28;20033;-74
2021/11/29 09:04:34;;;;;;;4.05;1.73;;;2.20;1.00;;;;;;5036466;28;20037;-73
2021/11/29 09:07:00;;;;;;;8.13;1.77;;;2.20;1.00;;;;;;5035741;28;20505;-74
2021/11/29 09:09:31;;;;;;;5.53;1.95;;;2.20;1.00;;;;;;5036466;28;20045;-73
2021/11/29 09:11:57;;;;;;;7.13;2.10;;;2.20;1.90;;;;;;5035744;28;20038;-75
2021/11/29 09:14:23;;;;;;;9.50;3.40;;;2.20;1.10;;;;;;5036001;28;20033;-74
2021/11/29 09:16:49;;;;;;;19.70;12.43;;;2.20;1.00;;;;;;5034395;28;20128;-74
2021/11/29 09:19:14;;;;;;;21.08;10.65;;;2.20;1.00;;;;;;5036210;28;20092;-74
2021/11/29 09:21:40;;;;;;;8.05;3.33;;;2.20;1.00;;;;;;5036335;28;20492;-73
2021/11/29 09:24:07;;;;;;;14.90;7.25;;;2.20;1.00;;;;;;5034956;28;20130;-73
2021/11/29 09:26:32;;;;;;;143.65;75.50;;;2.20;1.00;;;;;;5035665;28;20171;-74
2021/11/29 09:28:59;;;;;;;44.85;20.98;;;2.20;4.30;;;;;;5035603;28;20068;-73
2021/11/29 09:31:26;;;;;;;4.22;2.45;;;2.20;1.00;;;;;;5035860;28;20033;-73
2021/11/29 09:33:52;;;;;;;11.68;3.65;;;2.20;1.00;;;;;;5035081;28;20067;-73
2021/11/29 09:36:18;;;;;;;7.93;2.25;;;2.20;1.00;;;;;;5035469;28;20065;-73
2021/11/29 09:38:44;;;;;;;3.03;1.63;;;2.10;13.30;;;;;;5035774;28;20500;-74
2021/11/29 09:41:10;;;;;;;13.05;5.47;;;2.10;5.30;;;;;;5035095;28;20040;-74
2021/11/29 09:43:38;;;;;;;8.68;3.92;;;2.10;13.20;;;;;;5035032;28;20045;-73
2021/11/29 09:46:06;;;;;;;5.72;2.78;;;2.10;8.70;;;;;;5035253;28;20059;-74
2021/11/29 09:48:32;;;;;;;7.22;2.10;;;2.10;11.10;;;;;;5030879;28;20037;-75
2021/11/29 09:50:59;;;;;;;163.52;87.05;;;2.10;23.10;;;;;;5035113;28;20136;-73
2021/11/29 09:53:30;;;;;;;3.92;2.60;;;2.20;1.00;;;;;;5035257;28;20132;-73
2021/11/29 09:55:56;;;;;;;;;;;2.20;7.30;;;;;;5034913;28;20033;-72
2021/11/29 09:58:22;;;;;;;10.85;4.72;;;2.20;2.30;;;;;;5035157;28;19935;-72
2021/11/29 10:00:54;;;;;;;7.68;2.40;;;2.30;2.70;;;;;;5033282;28;20133;-72
2021/11/29 10:03:20;;;;;;;8.82;2.00;;;2.50;1.00;;;;;;5033299;28;20041;-72
2021/11/29 10:05:46;;;;;;;5.63;1.77;;;2.60;1.00;;;;;;5034435;28;20033;-72
2021/11/29 10:08:21;;;;;;;12.02;6.70;;;2.70;1.00;;;;;;5034582;28;20037;-72
2021/11/29 10:10:50;;;;;;;23.67;12.07;;;2.80;1.00;;;;;;5034783;28;20496;-72
2021/11/29 10:13:16;;;;;;;5.38;3.17;;;2.90;1.00;;;;;;5034924;28;20046;-72
2021/11/29 10:15:43;;;;;;;6.75;1.70;;;2.90;1.00;;;;;;5034799;28;20044;-72
2021/11/29 10:18:29;;;;;;;24.45;16.20;;;3.00;1.00;;;;;;5033841;28;20489;-72
2021/11/29 10:20:59;;;;;;;19.67;11.60;;;3.10;1.00;;;;;;5035338;28;20041;-72
2021/11/29 10:23:50;;;;;;;10.88;4.65;;;3.30;1.00;;;;;;5034644;28;20044;-73
2021/11/29 10:26:21;;;;;;;7.70;2.25;;;3.40;1.00;;;;;;5028263;28;20034;-72
2021/11/29 10:28:55;;;;;;;5.05;1.77;;;3.50;1.00;;;;;;5035183;28;20041;-72
2021/11/29 10:31:40;;;;;;;6.80;3.65;;;3.60;1.00;;;;;;5034258;28;20072;-72
2021/11/29 10:34:15;;;;;;;6.05;1.73;;;3.90;1.00;;;;;;5035082;28;20045;-72
2021/11/29 10:37:03;;;;;;;9.05;3.60;;;4.00;1.00;;;;;;5034791;28;20041;-72
2021/11/29 10:39:50;;;;;;;4.03;1.65;;;4.10;1.00;;;;;;5034723;28;20060;-72
2021/11/29 10:42:16;;;;;;;57.28;30.77;;;4.10;1.00;;;;;;5034429;28;20500;-72
2021/11/29 10:44:45;;;;;;;19.40;12.57;;;4.10;1.00;;;;;;5034653;28;20127;-72
2021/11/29 10:47:16;;;;;;;5.28;2.60;;;4.00;1.00;;;;;;5035099;28;20041;-72
2021/11/29 10:49:53;;;;;;;7.68;2.05;;;4.10;1.00;;;;;;5034300;28;20049;-72
2021/11/29 10:52:24;;;;;;;7.97;2.55;;;4.20;1.00;;;;;;5034780;28;20045;-72
2021/11/29 10:54:50;;;;;;;9.07;6.00;;;4.20;1.00;;;;;;5034392;28;20052;-72
2021/11/29 10:57:18;;;;;;;17.05;14.60;;;4.00;1.00;;;;;;5034690;28;20037;-73
2021/11/29 10:59:46;;;;;;;7.63;2.22;;;3.90;1.00;;;;;;5034685;28;20041;-72
2021/11/29 11:02:17;;;;;;;9.82;3.00;;;3.70;1.00;;;;;;5034440;28;20079;-72
2021/11/29 11:04:45;;;;;;;4.75;1.90;;;3.80;1.00;;;;;;5034249;28;20040;-72
2021/11/29 11:07:20;;;;;;;7.38;2.13;;;4.00;1.00;;;;;;5034221;28;20059;-73
2021/11/29 11:09:55;;;;;;;4.35;1.40;;;4.00;1.00;;;;;;5033826;28;20067;-75
2021/11/29 11:12:24;;;;;;;59.05;52.83;;;4.10;1.00;;;;;;5034844;28;20060;-75
2021/11/29 11:14:54;;;;;;;5.72;2.10;;;4.10;1.00;;;;;;5034042;28;20038;-74
2021/11/29 11:17:21;;;;;;;5.07;2.25;;;4.20;1.00;;;;;;5034647;28;20040;-74
2021/11/29 11:19:52;;;;;;;8.13;2.65;;;4.10;1.00;;;;;;5034041;28;20057;-74
2021/11/29 11:22:32;;;;;;;8.75;1.70;;;4.20;1.00;;;;;;5034504;28;20045;-74
2021/11/29 11:25:00;;;;;;;4.30;1.52;;;4.30;1.00;;;;;;5034154;28;20045;-74
2021/11/29 11:27:31;;;;;;;6.72;2.15;;;4.20;1.00;;;;;;5034360;28;20030;-74
2021/11/29 11:30:02;;;;;;;;;;;4.10;1.00;;;;;;5036763;28;20508;-74
2021/11/29 11:32:58;;;;;;;3.67;1.70;;;4.10;1.00;;;;;;5036443;28;19913;-74
2021/11/29 11:35:29;;;;;;;5.93;2.03;;;4.10;1.00;;;;;;5015012;28;20388;-74
2021/11/29 11:37:59;;;;;;;5.07;1.77;;;4.00;1.00;;;;;;5037656;28;20552;-74
2021/11/29 11:40:34;;;;;;;5.15;1.83;;;4.10;1.00;;;;;;5038172;28;20049;-74
2021/11/29 11:43:04;;;;;;;7.72;2.50;;;4.10;1.00;;;;;;5038045;28;20044;-74
2021/11/29 11:45:37;;;;;;;4.67;1.67;;;4.10;1.00;;;;;;5037923;28;20041;-74
2021/11/29 11:48:04;;;;;;;4.93;2.03;;;4.30;1.00;;;;;;5037752;28;20033;-74
2021/11/29 11:50:37;;;;;;;7.05;1.90;;;4.30;1.00;;;;;;5037404;28;20388;-73
2021/11/29 11:53:05;;;;;;;6.32;2.58;;;4.20;1.00;;;;;;5000125;28;20097;-73
2021/11/29 11:55:37;;;;;;;44.10;29.90;;;4.30;1.00;;;;;;5033334;28;20029;-73
2021/11/29 11:58:18;;;;;;;5.38;1.88;;;4.20;1.00;;;;;;5036331;28;20072;-73
2021/11/29 12:01:08;;;;;;;5.32;2.10;;;4.30;1.00;;;;;;5036143;28;20041;-74
2021/11/29 12:03:39;;;;;;;6.65;1.83;;;4.20;1.00;;;;;;5035531;28;20643;-74
2021/11/29 12:06:08;;;;;;;19.73;13.05;;;4.20;1.00;;;;;;5034867;28;20045;-74
2021/11/29 12:08:49;;;;;;;6.22;1.90;;;3.90;1.00;;;;;;5035727;28;20037;-73
2021/11/29 12:11:27;;;;;;;6.18;1.50;;;4.00;1.00;;;;;;5033868;28;20037;-73
2021/11/29 12:14:19;;;;;;;13.02;7.03;;;3.90;1.00;;;;;;5036387;28;20037;-73
2021/11/29 12:16:56;;;;;;;6.72;2.50;;;3.70;1.00;;;;;;5035884;28;20045;-73
2021/11/29 12:19:27;;;;;;;14.88;7.80;;;3.70;1.00;;;;;;5035533;28;20064;-73
2021/11/29 12:21:56;;;;;;;4.07;2.88;;;3.80;1.00;;;;;;5036228;28;20040;-73
2021/11/29 12:24:27;;;;;;;39.80;23.85;;;3.80;1.00;;;;;;5034634;28;20091;-73
2021/11/29 12:26:59;;;;;;;3.83;1.95;;;3.90;1.00;;;;;;5033949;28;20040;-73
2021/11/29 12:29:25;;;;;;;6.55;2.72;;;4.00;1.00;;;;;;5035673;28;20045;-73
2021/11/29 12:32:06;;;;;;;5.00;2.00;;;4.00;1.00;;;;;;5035301;28;20037;-73
2021/11/29 12:34:49;;;;;;;3.50;1.75;;;4.10;1.00;;;;;;5035958;28;20107;-74
2021/11/29 12:37:27;;;;;;;2.70;1.67;;;4.10;1.00;;;;;;5035285;28;20048;-74
2021/11/29 12:40:00;;;;;;;3.88;2.35;;;3.90;1.00;;;;;;5035030;28;20128;-74
2021/11/29 12:42:28;;;;;;;2.65;1.85;;;3.90;1.00;;;;;;5031159;28;20045;-74
2021/11/29 12:44:55;;;;;;;2.92;1.63;;;3.90;1.00;;;;;;5031846;28;20047;-74
2021/11/29 12:47:27;;;;;;;3.67;1.60;;;3.90;9.00;;;;;;5033195;28;20037;-74
2021/11/29 12:49:56;;;;;;;4.63;2.10;;;3.70;3.30;;;;;;5033720;28;20053;-74
2021/11/29 12:52:39;;;;;;;96.72;57.75;;;3.60;20.70;;;;;;5034979;28;20492;-74
2021/11/29 12:55:29;;;;;;;2.75;1.98;;;3.50;20.60;;;;;;5035385;28;20037;-74
2021/11/29 12:58:06;;;;;;;6.47;4.03;;;3.50;25.80;;;;;;5035094;28;20392;-74
2021/11/29 13:00:35;;;;;;;3.47;1.98;;;3.30;32.60;;;;;;5035165;28;20049;-74
2021/11/29 13:03:03;;;;;;;4.03;1.42;;;3.20;13.80;;;;;;5034567;28;20103;-74
2021/11/29 13:05:30;;;;;;;37.78;21.83;;;3.10;21.10;;;;;;5034995;28;20026;-74
2021/11/29 13:08:23;;;;;;;30.08;18.13;;;3.10;43.60;;;;;;5035156;28;20565;-75